Lee, Florida
Current Conditions -  °F | °C
As of 11:55 PM on Sunday 21 Dec 2014 (Local Time) from K24J Reporting Station
Overcast Overcast  
Wind Chill: 57°   Ceiling: 100
Heat Index: 57°   Visibility: 1.2mi
Dew Point: 57°   Wind: 3mph
Humidity: 100%   Direction: 80°E
Pressure: 30.07"   Gusts: NA
Location:  30.42°N, 83.3°W
Report Text: K24J 220455Z AUTO 08003KT 1 1/4SM OVC001 14/14 A3007 RMK AO1
Loading
Personal Weather Stations






























Interactive Weather Map New forecast layout! Learn more

10-Day Weather Forecast

Advertisements
Track Severe Weather on mobile